createdAt,value
2022-09-10T00:02:21.903Z,3.53
2022-09-10T00:06:27.865Z,3.63
2022-09-10T00:10:31.177Z,5.20
2022-09-10T00:14:36.021Z,3.67
2022-09-10T00:18:40.067Z,3.45
2022-09-10T00:22:43.219Z,4.80
2022-09-10T00:26:46.600Z,2.72
2022-09-10T00:30:52.859Z,2.88
2022-09-10T00:34:56.114Z,4.18
2022-09-10T00:39:02.483Z,4.40
2022-09-10T00:43:07.763Z,2.65
2022-09-10T00:47:15.810Z,3.97
2022-09-10T00:51:19.793Z,3.47
2022-09-10T00:55:23.573Z,2.67
2022-09-10T00:59:28.244Z,2.72
2022-09-10T01:03:33.116Z,3.22
2022-09-10T01:07:36.704Z,3.60
2022-09-10T01:11:54.549Z,4.25
2022-09-10T01:16:10.586Z,2.97
2022-09-10T01:21:04.802Z,4.22
2022-09-10T01:25:20.704Z,3.33
2022-09-10T01:29:31.033Z,5.40
2022-09-10T01:33:39.171Z,3.38
2022-09-10T01:37:46.756Z,3.00
2022-09-10T01:41:50.744Z,2.70
2022-09-10T01:46:13.316Z,1.95
2022-09-10T01:50:24.207Z,1.40
2022-09-10T01:54:40.560Z,1.70
2022-09-10T01:58:45.088Z,2.20
2022-09-10T02:03:22.805Z,1.55
2022-09-10T02:07:29.600Z,1.77
2022-09-10T02:11:44.218Z,1.50
2022-09-10T02:15:49.273Z,3.28
2022-09-10T02:20:05.479Z,2.25
2022-09-10T02:24:10.690Z,2.00
2022-09-10T02:28:13.971Z,3.42
2022-09-10T02:32:18.438Z,2.25
2022-09-10T02:36:26.207Z,3.15
2022-09-10T02:40:31.495Z,2.05
2022-09-10T02:44:34.888Z,1.85
2022-09-10T02:48:38.763Z,1.58
2022-09-10T02:52:46.428Z,1.65
2022-09-10T02:56:49.976Z,1.85
2022-09-10T03:00:53.458Z,3.38
2022-09-10T03:04:56.714Z,2.42
2022-09-10T03:09:02.779Z,3.60
2022-09-10T03:13:06.606Z,1.52
2022-09-10T03:17:09.695Z,1.83
2022-09-10T03:21:15.875Z,2.00
2022-09-10T03:25:22.743Z,3.00
2022-09-10T03:29:26.421Z,1.60
2022-09-10T03:33:29.471Z,3.13
2022-09-10T03:37:32.718Z,2.10
2022-09-10T03:41:39.610Z,1.88
2022-09-10T03:45:45.179Z,2.28
2022-09-10T03:49:50.806Z,2.67
2022-09-10T03:53:54.423Z,2.28
2022-09-10T03:57:59.490Z,2.78
2022-09-10T04:02:03.189Z,2.35
2022-09-10T04:06:10.211Z,2.00
2022-09-10T04:10:13.380Z,2.25
2022-09-10T04:14:19.565Z,2.53
2022-09-10T04:18:24.024Z,2.97
2022-09-10T04:22:28.389Z,3.75
2022-09-10T04:26:32.958Z,2.78
2022-09-10T04:30:37.799Z,3.35
2022-09-10T04:34:41.165Z,4.88
2022-09-10T04:38:45.255Z,3.30
2022-09-10T04:42:51.023Z,2.85
2022-09-10T04:46:55.481Z,3.70
2022-09-10T04:51:15.761Z,4.28
2022-09-10T04:55:22.030Z,4.82
2022-09-10T04:59:25.614Z,4.68
2022-09-10T05:03:30.244Z,3.92
2022-09-10T05:07:34.656Z,3.65
2022-09-10T05:11:39.061Z,5.03
2022-09-10T05:15:43.379Z,4.57
2022-09-10T05:19:47.963Z,3.55
2022-09-10T05:23:51.502Z,4.25
2022-09-10T05:27:55.218Z,4.40
2022-09-10T05:31:59.183Z,4.15
2022-09-10T05:36:05.238Z,3.70
2022-09-10T05:40:10.823Z,3.53
2022-09-10T05:44:15.246Z,2.90
2022-09-10T05:48:18.400Z,2.22
2022-09-10T05:52:24.196Z,2.75
2022-09-10T05:56:28.239Z,3.97
2022-09-10T06:00:32.412Z,3.28
2022-09-10T06:04:37.507Z,2.67
2022-09-10T06:08:42.312Z,2.58
2022-09-10T06:12:52.034Z,1.95
2022-09-10T06:16:55.884Z,1.73
2022-09-10T06:21:05.866Z,2.17
2022-09-10T06:25:10.976Z,1.83
2022-09-10T06:29:14.714Z,2.47
2022-09-10T06:33:19.620Z,2.13
2022-09-10T06:37:23.713Z,3.17
2022-09-10T06:41:31.101Z,1.73
2022-09-10T06:45:40.681Z,3.03
2022-09-10T06:49:56.027Z,1.50
2022-09-10T06:53:59.288Z,1.90
2022-09-10T06:58:04.165Z,1.70
2022-09-10T07:02:08.002Z,1.40
2022-09-10T07:06:15.371Z,1.42
2022-09-10T07:10:20.363Z,2.83
2022-09-10T07:14:25.601Z,2.53
2022-09-10T07:18:31.044Z,1.30
2022-09-10T07:22:34.759Z,1.92
2022-09-10T07:26:42.671Z,1.33
2022-09-10T07:30:49.060Z,1.50
2022-09-10T07:34:55.964Z,1.60
2022-09-10T07:39:01.999Z,2.00
2022-09-10T07:43:08.276Z,1.25
2022-09-10T07:47:12.903Z,2.20
2022-09-10T07:51:19.257Z,1.23
2022-09-10T07:55:24.436Z,1.00
2022-09-10T07:59:28.184Z,1.13
2022-09-10T08:03:37.723Z,1.95
2022-09-10T08:07:42.427Z,1.40
2022-09-10T08:11:45.646Z,2.35
2022-09-10T08:15:52.017Z,1.38
2022-09-10T08:19:57.515Z,2.25
2022-09-10T08:24:02.711Z,1.25
2022-09-10T08:28:08.627Z,1.42
2022-09-10T08:32:13.120Z,1.45
2022-09-10T08:36:19.575Z,1.73
2022-09-10T08:40:23.714Z,1.25
2022-09-10T08:44:37.078Z,1.10
2022-09-10T08:48:41.143Z,1.60
2022-09-10T08:52:51.323Z,1.15
2022-09-10T08:57:01.544Z,1.10
2022-09-10T09:01:06.269Z,1.10
2022-09-10T09:05:17.187Z,3.55
2022-09-10T09:09:23.616Z,2.00
2022-09-10T09:13:59.880Z,1.27
2022-09-10T09:18:20.495Z,1.90
2022-09-10T09:22:39.315Z,1.17
2022-09-10T09:26:47.216Z,1.10
2022-09-10T09:30:53.560Z,3.00
2022-09-10T09:35:03.471Z,1.25
2022-09-10T09:39:17.147Z,1.45
2022-09-10T09:43:35.705Z,1.52
2022-09-10T09:47:39.116Z,1.20
2022-09-10T09:51:43.120Z,1.77
2022-09-10T09:55:49.879Z,1.27
2022-09-10T09:59:55.303Z,2.30
2022-09-10T10:04:02.975Z,0.98
2022-09-10T10:08:06.147Z,1.38
2022-09-10T10:12:20.584Z,1.20
2022-09-10T10:16:35.619Z,1.40
2022-09-10T10:20:41.445Z,1.15
2022-09-10T10:24:45.384Z,1.10
2022-09-10T10:28:49.695Z,1.73
2022-09-10T10:32:57.179Z,1.90
2022-09-10T10:37:08.590Z,1.42
2022-09-10T10:41:50.923Z,1.00
2022-09-10T10:46:02.090Z,1.02
2022-09-10T10:50:21.436Z,2.08
2022-09-10T10:54:38.614Z,1.38
2022-09-10T10:59:00.967Z,0.90
2022-09-10T11:03:11.699Z,1.25
2022-09-10T11:07:23.196Z,1.00
2022-09-10T11:11:33.823Z,0.60
2022-09-10T11:15:43.181Z,0.60
2022-09-10T11:20:11.221Z,0.85
2022-09-10T11:24:24.571Z,0.52
2022-09-10T11:28:32.176Z,0.77
2022-09-10T11:32:40.507Z,0.90
2022-09-10T11:36:49.282Z,0.65
2022-09-10T11:41:05.484Z,0.55
2022-09-10T11:45:20.108Z,0.70
2022-09-10T11:49:26.968Z,1.13
2022-09-10T11:53:31.139Z,0.70
2022-09-10T11:57:43.182Z,1.05
2022-09-10T12:02:16.461Z,0.77
2022-09-10T12:06:23.836Z,1.65
2022-09-10T12:10:33.542Z,0.55
2022-09-10T12:14:40.939Z,0.45
2022-09-10T12:18:46.847Z,0.47
2022-09-10T12:22:55.684Z,1.23
2022-09-10T12:27:00.753Z,1.15
2022-09-10T12:31:05.297Z,1.58
2022-09-10T12:35:47.988Z,1.17
2022-09-10T12:40:29.790Z,1.65
2022-09-10T12:44:53.970Z,0.77
2022-09-10T12:49:13.622Z,1.27
2022-09-10T12:53:53.255Z,1.08
2022-09-10T12:58:07.305Z,2.22
2022-09-10T13:02:23.143Z,0.98
2022-09-10T13:06:38.807Z,0.60
2022-09-10T13:10:44.371Z,2.05
2022-09-10T13:14:52.847Z,1.50
2022-09-10T13:19:33.511Z,1.52
2022-09-10T13:23:51.258Z,0.88
2022-09-10T13:27:54.868Z,0.70
2022-09-10T13:32:02.967Z,0.82
2022-09-10T13:36:13.082Z,0.73
2022-09-10T13:41:01.386Z,1.00
2022-09-10T13:45:23.643Z,0.50
2022-09-10T13:49:36.709Z,0.50
2022-09-10T13:53:43.422Z,0.60
2022-09-10T13:57:49.983Z,0.50
2022-09-10T14:01:54.887Z,0.40
2022-09-10T14:06:07.857Z,0.60
2022-09-10T14:10:21.500Z,0.50
2022-09-10T14:14:29.275Z,0.75
2022-09-10T14:18:39.483Z,0.93
2022-09-10T14:22:42.807Z,0.90
2022-09-10T14:27:05.930Z,2.75
2022-09-10T14:31:30.066Z,0.70
2022-09-10T14:35:39.334Z,0.82
2022-09-10T14:39:46.699Z,2.05
2022-09-10T14:43:50.741Z,0.88
2022-09-10T14:47:55.384Z,2.78
2022-09-10T14:51:59.516Z,2.33
2022-09-10T14:56:02.663Z,1.00
2022-09-10T15:00:06.528Z,0.85
2022-09-10T15:04:14.883Z,0.88
2022-09-10T15:08:18.172Z,0.95
2022-09-10T15:12:25.196Z,0.73
2022-09-10T15:16:29.491Z,0.57
2022-09-10T15:20:33.876Z,0.57
2022-09-10T15:24:52.736Z,1.08
2022-09-10T15:29:00.401Z,0.93
2022-09-10T15:33:04.137Z,0.63
2022-09-10T15:37:09.193Z,0.55
2022-09-10T15:41:13.874Z,1.40
2022-09-10T15:45:17.374Z,4.00
2022-09-10T15:49:20.899Z,0.90
2022-09-10T15:53:25.483Z,0.70
2022-09-10T15:57:31.001Z,1.50
2022-09-10T16:01:36.904Z,0.98
2022-09-10T16:05:40.122Z,1.00
2022-09-10T16:09:44.604Z,1.67
2022-09-10T16:13:47.997Z,1.65
2022-09-10T16:17:51.236Z,1.50
2022-09-10T16:21:54.409Z,0.50
2022-09-10T16:25:59.000Z,1.33
2022-09-10T16:30:01.975Z,0.60
2022-09-10T16:34:07.517Z,0.65
2022-09-10T16:38:10.535Z,0.40
2022-09-10T16:42:14.906Z,0.40
2022-09-10T16:46:18.920Z,0.65
2022-09-10T16:50:22.246Z,0.38
2022-09-10T16:54:26.688Z,0.40
2022-09-10T16:58:35.662Z,0.30
2022-09-10T17:02:40.681Z,0.30
2022-09-10T17:06:43.968Z,0.30
2022-09-10T17:10:48.535Z,0.40
2022-09-10T17:14:53.206Z,1.50
2022-09-10T17:18:58.271Z,0.40
2022-09-10T17:23:01.712Z,0.30
2022-09-10T17:27:04.972Z,0.30
2022-09-10T17:31:09.574Z,0.43
2022-09-10T17:35:13.699Z,0.35
2022-09-10T17:39:16.923Z,0.30
2022-09-10T17:43:22.292Z,0.30
2022-09-10T17:47:29.671Z,0.20
2022-09-10T17:51:35.235Z,0.47
2022-09-10T17:55:38.436Z,0.52
2022-09-10T17:59:44.537Z,0.75
2022-09-10T18:03:49.172Z,0.75
2022-09-10T18:07:52.363Z,0.13
2022-09-10T18:11:56.692Z,0.20
2022-09-10T18:15:59.906Z,0.20
2022-09-10T18:20:04.809Z,0.20
2022-09-10T18:24:11.388Z,0.28
2022-09-10T18:28:14.722Z,0.20
2022-09-10T18:32:18.199Z,0.43
2022-09-10T18:36:23.407Z,0.63
2022-09-10T18:40:26.582Z,1.38
2022-09-10T18:44:33.179Z,0.20
2022-09-10T18:48:36.719Z,0.22
2022-09-10T18:52:41.578Z,0.40
2022-09-10T18:56:45.301Z,0.30
2022-09-10T19:00:48.299Z,0.30
2022-09-10T19:05:10.148Z,0.57
2022-09-10T19:09:17.108Z,0.35
2022-09-10T19:13:20.295Z,0.30
2022-09-10T19:17:23.929Z,0.95
2022-09-10T19:21:28.870Z,0.30
2022-09-10T19:25:33.463Z,0.45
2022-09-10T19:29:36.789Z,0.30
2022-09-10T19:33:40.248Z,0.10
2022-09-10T19:37:43.331Z,0.30
2022-09-10T19:41:48.053Z,0.20
2022-09-10T19:45:56.113Z,0.40
2022-09-10T19:49:59.267Z,0.30
2022-09-10T19:54:03.378Z,1.02
2022-09-10T19:58:08.063Z,0.30
2022-09-10T20:02:11.663Z,0.32
2022-09-10T20:06:18.385Z,0.30
2022-09-10T20:10:21.655Z,0.38
2022-09-10T20:14:26.043Z,0.40
2022-09-10T20:18:30.336Z,0.32
2022-09-10T20:22:38.207Z,0.63
2022-09-10T20:26:43.850Z,0.35
2022-09-10T20:30:48.266Z,0.30
2022-09-10T20:34:51.520Z,0.35
2022-09-10T20:38:55.678Z,0.43
2022-09-10T20:42:58.773Z,0.73
2022-09-10T20:47:03.967Z,0.40
2022-09-10T20:51:08.869Z,0.30
2022-09-10T20:55:11.851Z,0.47
2022-09-10T20:59:16.421Z,0.28
2022-09-10T21:03:21.327Z,0.32
2022-09-10T21:07:24.395Z,0.93
2022-09-10T21:11:30.687Z,0.50
2022-09-10T21:15:33.710Z,0.50
2022-09-10T21:19:38.069Z,0.50
2022-09-10T21:23:44.960Z,0.70
2022-09-10T21:27:48.153Z,1.45
2022-09-10T21:31:54.525Z,1.30
2022-09-10T21:36:03.319Z,0.52
2022-09-10T21:40:08.636Z,0.50
2022-09-10T21:44:14.164Z,0.63
2022-09-10T21:48:17.229Z,0.50
2022-09-10T21:52:25.202Z,0.30
2022-09-10T21:56:29.779Z,0.40
2022-09-10T22:00:32.847Z,0.77
2022-09-10T22:04:36.228Z,1.27
2022-09-10T22:08:43.117Z,0.52
2022-09-10T22:12:46.397Z,3.78
2022-09-10T22:16:49.956Z,0.40
2022-09-10T22:21:00.975Z,0.38
2022-09-10T22:25:06.208Z,0.70
2022-09-10T22:29:09.668Z,0.68
2022-09-10T22:33:14.667Z,0.40
2022-09-10T22:37:17.957Z,0.52
2022-09-10T22:41:23.056Z,0.57
2022-09-10T22:45:26.212Z,0.40
2022-09-10T22:49:29.293Z,0.40
2022-09-10T22:53:32.496Z,0.65
2022-09-10T22:57:38.572Z,0.40
2022-09-10T23:01:43.273Z,0.40
2022-09-10T23:05:46.691Z,0.35
2022-09-10T23:09:49.814Z,0.50
2022-09-10T23:13:56.939Z,0.55
2022-09-10T23:18:00.494Z,0.40
2022-09-10T23:22:03.750Z,0.50
2022-09-10T23:26:08.885Z,0.30
2022-09-10T23:30:16.109Z,0.43
2022-09-10T23:34:20.988Z,0.50
2022-09-10T23:38:24.745Z,0.70
2022-09-10T23:42:27.823Z,0.40
2022-09-10T23:46:32.662Z,0.60
2022-09-10T23:50:35.849Z,0.47
2022-09-10T23:54:38.867Z,0.45
2022-09-10T23:58:42.091Z,0.80
